Time;durP1;ratioP1;P1;durP2;ratioP2;P2;SDS_P1;SDS_P2;PMS_P1;PMS_P2;Temp;Humidity;BMP_temperature;BMP_pressure;BME280_temperature;BME280_humidity;BME280_pressure;Samples;Min_cycle;Max_cycle;Signal;HPM_P1;HPM_P2
2021/12/18 00:00:51;;;;;;;;;;;;;;;3.17;82.65;98409.19;5093888;28;19958;-75
2021/12/18 00:03:17;;;;;;;;;;;;;;;3.14;82.97;98406.81;5094451;28;19956;-75
2021/12/18 00:05:44;;;;;;;;;;;;;;;3.14;83.28;98399.06;5094374;28;19964;-75
2021/12/18 00:08:10;;;;;;;;;;;;;;;3.17;83.47;98401.41;5094609;28;19958;-75
2021/12/18 00:10:37;;;;;;;;;;;;;;;3.21;83.25;98401.97;5094425;28;19958;-75
2021/12/18 00:13:03;;;;;;;;;;;;;;;3.24;83.15;98392.19;5094184;28;19985;-75
2021/12/18 00:15:29;;;;;;;;;;;;;;;3.27;83.15;98404.06;5094264;28;19956;-75
2021/12/18 00:17:55;;;;;;;;;;;;;;;3.30;83.10;98398.66;5094357;28;20342;-75
2021/12/18 00:20:23;;;;;;;;;;;;;;;3.33;82.97;98393.22;5094284;28;19963;-75
2021/12/18 00:22:50;;;;;;;;;;;;;;;3.33;83.03;98393.22;5094684;28;19961;-75
2021/12/18 00:25:16;;;;;;;;;;;;;;;3.35;82.79;98387.91;5094255;28;20357;-75
2021/12/18 00:27:42;;;;;;;;;;;;;;;3.34;82.84;98397.47;5075998;28;20053;-75
2021/12/18 00:30:08;;;;;;;;;;;;;;;3.33;82.80;98388.03;5094036;28;19961;-75
2021/12/18 00:32:34;;;;;;;;;;;;;;;3.32;82.80;98378.63;5080920;28;20412;-75
2021/12/18 00:35:00;;;;;;;;;;;;;;;3.33;82.74;98382.03;5094114;28;19957;-75
2021/12/18 00:37:26;;;;;;;;;;;;;;;3.33;82.73;98387.22;5093961;28;20437;-75
2021/12/18 00:39:56;;;;;;;;;;;;;;;3.32;82.73;98386.41;5093916;28;20009;-75
2021/12/18 00:45:04;;;;;;;;;;;;;;;3.32;82.65;98395.91;5094158;28;19958;-75
2021/12/18 00:47:30;;;;;;;;;;;;;;;3.31;82.58;98396.88;5094208;28;19954;-75
2021/12/18 00:49:56;;;;;;;;;;;;;;;3.29;82.79;98401.38;5093707;28;20005;-75
2021/12/18 00:52:23;;;;;;;;;;;;;;;3.26;82.72;98397.25;5093984;28;20410;-75
2021/12/18 00:54:50;;;;;;;;;;;;;;;3.25;83.02;98401.63;5093027;28;19974;-75
2021/12/18 00:57:16;;;;;;;;;;;;;;;3.25;83.08;98391.25;5094079;28;19959;-75
2021/12/18 00:59:42;;;;;;;;;;;;;;;3.24;82.69;98399.97;5093633;28;19962;-75
2021/12/18 01:02:08;;;;;;;;;;;;;;;3.19;82.62;98401.28;5093818;28;19955;-76
2021/12/18 01:04:34;;;;;;;;;;;;;;;3.12;82.90;98410.50;5093722;28;20403;-75
2021/12/18 01:07:00;;;;;;;;;;;;;;;3.02;82.74;98406.06;5092139;28;19957;-75
2021/12/18 01:09:49;;;;;;;;;;;;;;;2.90;83.23;98412.19;5093788;28;19955;-75
2021/12/18 01:12:15;;;;;;;;;;;;;;;2.77;83.42;98412.34;5097789;28;19962;-75
2021/12/18 01:15:18;;;;;;;;;;;;;;;2.68;83.70;98412.22;5097882;28;19962;-75
2021/12/18 01:25:12;;;;;;;;;;;;;;;2.51;84.34;98416.94;5097802;28;19966;-75
2021/12/18 01:27:38;;;;;;;;;;;;;;;2.51;84.14;98408.34;5097662;28;19961;-75
2021/12/18 01:30:05;;;;;;;;;;;;;;;2.54;84.29;98410.69;5097503;28;20455;-75
2021/12/18 01:32:31;;;;;;;;;;;;;;;2.54;84.15;98403.78;5097490;28;19951;-75
2021/12/18 01:34:57;;;;;;;;;;;;;;;2.44;84.47;98414.00;5097351;28;19962;-75
2021/12/18 01:37:23;;;;;;;;;;;;;;;2.41;84.77;98408.22;5096545;28;19961;-75
2021/12/18 01:39:52;;;;;;;;;;;;;;;2.48;84.91;98412.00;5097195;28;19963;-74
2021/12/18 01:53:24;;;;;;;;;;;;;;;2.48;84.23;98406.81;5065318;28;20466;-75
2021/12/18 01:55:52;;;;;;;;;;;;;;;2.33;84.59;98405.41;5097074;28;19975;-75
2021/12/18 01:58:21;;;;;;;;;;;;;;;2.26;85.00;98402.44;5096885;28;19981;-75
2021/12/18 02:00:48;;;;;;;;;;;;;;;2.25;85.25;98411.19;5097296;28;20405;-75
2021/12/18 02:03:13;;;;;;;;;;;;;;;2.19;85.23;98404.69;5096750;28;19965;-75
2021/12/18 02:05:40;;;;;;;;;;;;;;;2.20;85.58;98405.50;5096711;28;20025;-77
2021/12/18 02:08:07;;;;;;;;;;;;;;;2.19;85.37;98406.47;5096870;28;19962;-75
2021/12/18 02:10:44;;;;;;;;;;;;;;;2.08;85.47;98407.28;5096851;28;19964;-74
2021/12/18 02:13:39;;;;;;;;;;;;;;;2.00;85.92;98412.22;5097227;28;19953;-74
2021/12/18 02:21:34;;;;;;;;;;;;;;;2.05;86.16;98402.31;5096107;28;19953;-74
2021/12/18 02:24:00;;;;;;;;;;;;;;;2.13;86.03;98407.75;5096238;28;20459;-75
2021/12/18 02:26:26;;;;;;;;;;;;;;;2.17;85.91;98410.94;5096552;28;19959;-74
2021/12/18 02:28:54;;;;;;;;;;;;;;;2.18;85.84;98405.66;5096215;28;20576;-74
2021/12/18 02:31:20;;;;;;;;;;;;;;;2.08;85.81;98412.47;5078613;28;19961;-75
2021/12/18 02:33:47;;;;;;;;;;;;;;;2.04;86.20;98408.44;5096348;28;19959;-74
2021/12/18 02:36:22;;;;;;;;;;;;;;;2.00;86.13;98407.03;5096067;28;19964;-75
2021/12/18 02:43:52;;;;;;;;;;;;;;;1.92;87.25;98405.00;5096523;28;19961;-74
2021/12/18 02:46:20;;;;;;;;;;;;;;;1.85;87.25;98411.59;5096042;28;19958;-74
2021/12/18 02:48:47;;;;;;;;;;;;;;;1.79;87.09;98406.88;5096291;28;19963;-75
2021/12/18 02:51:15;;;;;;;;;;;;;;;1.75;87.43;98415.78;5096007;28;20292;-75
2021/12/18 02:53:43;;;;;;;;;;;;;;;1.66;87.75;98408.69;5095642;28;19990;-74
2021/12/18 02:56:10;;;;;;;;;;;;;;;1.56;87.99;98398.22;5095896;28;20427;-74
2021/12/18 02:58:36;;;;;;;;;;;;;;;1.47;88.95;98397.13;5095580;28;19977;-74
2021/12/18 03:01:03;;;;;;;;;;;;;;;1.46;89.13;98397.25;5096142;28;20334;-75
2021/12/18 03:03:32;;;;;;;;;;;;;;;1.46;89.17;98400.66;5095547;28;19951;-74
2021/12/18 03:06:24;;;;;;;;;;;;;;;1.53;88.99;98401.84;5095556;28;20360;-75
2021/12/18 03:08:58;;;;;;;;;;;;;;;1.60;88.00;98394.47;5095184;28;19960;-74
2021/12/18 03:27:15;;;;;;;;;;;;;;;1.92;87.85;98391.25;5095115;28;19963;-75
2021/12/18 03:29:41;;;;;;;;;;;;;;;1.98;87.76;98389.03;5095318;28;20029;-75
2021/12/18 03:32:07;;;;;;;;;;;;;;;2.03;87.34;98386.09;5095456;28;19959;-75
2021/12/18 03:34:33;;;;;;;;;;;;;;;2.05;87.08;98393.75;5093892;28;19968;-75
2021/12/18 03:37:00;;;;;;;;;;;;;;;2.06;86.92;98387.59;5095053;28;19965;-76
2021/12/18 03:39:26;;;;;;;;;;;;;;;2.02;86.72;98387.03;5094722;28;20340;-75
2021/12/18 03:41:53;;;;;;;;;;;;;;;2.02;87.04;98389.63;5077148;28;20412;-76
2021/12/18 03:44:19;;;;;;;;;;;;;;;2.00;86.64;98387.16;5094824;28;19965;-75
2021/12/18 03:46:45;;;;;;;;;;;;;;;2.00;86.61;98387.16;5095024;28;19955;-75
2021/12/18 03:49:11;;;;;;;;;;;;;;;1.94;86.50;98390.19;5094797;28;19970;-75
2021/12/18 03:51:37;;;;;;;;;;;;;;;1.95;86.87;98385.84;5094679;28;19964;-75
2021/12/18 03:54:03;;;;;;;;;;;;;;;1.96;86.79;98382.31;5094884;28;19978;-75
2021/12/18 03:56:29;;;;;;;;;;;;;;;1.93;87.01;98385.97;5094602;28;19959;-74
2021/12/18 03:58:55;;;;;;;;;;;;;;;1.97;86.99;98381.38;5094584;28;19971;-75
2021/12/18 04:01:21;;;;;;;;;;;;;;;1.99;87.13;98379.50;5076571;28;20005;-75
2021/12/18 04:03:47;;;;;;;;;;;;;;;1.99;86.57;98382.06;5094383;28;20004;-75
2021/12/18 04:06:13;;;;;;;;;;;;;;;1.89;86.82;98381.13;5094488;28;20055;-75
2021/12/18 04:08:39;;;;;;;;;;;;;;;1.86;87.11;98382.19;5094527;28;19960;-74
2021/12/18 04:11:05;;;;;;;;;;;;;;;1.85;87.17;98375.38;5094264;28;19970;-75
2021/12/18 04:13:31;;;;;;;;;;;;;;;1.86;87.06;98379.59;5095010;28;20044;-75
2021/12/18 04:15:57;;;;;;;;;;;;;;;1.86;86.99;98374.41;5094218;28;20434;-74
2021/12/18 04:18:23;;;;;;;;;;;;;;;1.83;86.92;98375.47;5094061;28;19978;-75
2021/12/18 04:20:49;;;;;;;;;;;;;;;1.85;87.35;98388.31;5093256;28;20028;-75
2021/12/18 04:23:15;;;;;;;;;;;;;;;1.83;87.07;98378.06;5092973;28;19959;-75
2021/12/18 04:25:42;;;;;;;;;;;;;;;1.85;87.27;98377.09;5094080;28;20018;-75
2021/12/18 04:28:07;;;;;;;;;;;;;;;1.88;87.04;98379.47;5083486;28;19960;-75
2021/12/18 04:30:33;;;;;;;;;;;;;;;1.85;86.87;98380.53;5094036;28;20040;-75
2021/12/18 04:32:59;;;;;;;;;;;;;;;1.82;87.43;98381.56;5094074;28;20018;-74
2021/12/18 04:35:27;;;;;;;;;;;;;;;1.84;87.15;98381.47;5093952;28;19986;-75
2021/12/18 04:37:53;;;;;;;;;;;;;;;1.85;87.13;98387.47;5094055;28;19966;-74
2021/12/18 04:40:24;;;;;;;;;;;;;;;1.81;86.53;98377.34;5093781;28;20397;-74
2021/12/18 04:42:50;;;;;;;;;;;;;;;1.80;86.51;98385.22;5094214;28;19953;-75
2021/12/18 04:45:16;;;;;;;;;;;;;;;1.74;86.33;98391.69;5093589;28;20372;-74
2021/12/18 04:47:42;;;;;;;;;;;;;;;1.68;86.89;98383.53;5093718;28;20010;-75
2021/12/18 04:50:08;;;;;;;;;;;;;;;1.67;87.14;98387.91;5093825;28;19963;-75
2021/12/18 04:52:34;;;;;;;;;;;;;;;1.69;87.25;98383.44;5093753;28;19958;-75
2021/12/18 04:55:00;;;;;;;;;;;;;;;1.72;87.50;98380.63;5093977;28;19981;-75
2021/12/18 04:57:28;;;;;;;;;;;;;;;1.76;87.41;98379.44;5093067;28;20453;-75
2021/12/18 04:59:54;;;;;;;;;;;;;;;1.77;86.95;98373.34;5093952;28;19986;-75
2021/12/18 05:02:24;;;;;;;;;;;;;;;1.76;87.50;98376.84;5093765;28;19954;-75
2021/12/18 05:04:52;;;;;;;;;;;;;;;1.77;87.34;98375.94;5093751;28;19964;-75
2021/12/18 05:07:18;;;;;;;;;;;;;;;1.79;86.89;98374.06;5093523;28;19974;-75
2021/12/18 05:09:44;;;;;;;;;;;;;;;1.81;86.88;98377.34;5075499;28;20073;-76
2021/12/18 05:12:11;;;;;;;;;;;;;;;1.79;87.04;98378.41;5093574;28;20046;-75
2021/12/18 05:14:37;;;;;;;;;;;;;;;1.77;86.88;98380.28;5093567;28;19959;-74
2021/12/18 05:17:03;;;;;;;;;;;;;;;1.71;86.81;98386.72;5093716;28;19957;-75
2021/12/18 05:19:29;;;;;;;;;;;;;;;1.65;87.10;98386.38;5093637;28;19974;-74
2021/12/18 05:21:55;;;;;;;;;;;;;;;1.63;87.32;98378.72;5093368;28;20409;-74
2021/12/18 05:24:21;;;;;;;;;;;;;;;1.63;87.78;98387.28;5093322;28;20014;-76
2021/12/18 05:26:47;;;;;;;;;;;;;;;1.58;86.99;98389.41;5075653;28;20451;-75
2021/12/18 05:29:13;;;;;;;;;;;;;;;1.50;87.14;98383.16;5093476;28;19979;-74
2021/12/18 05:31:39;;;;;;;;;;;;;;;1.44;87.41;98383.59;5093576;28;20052;-74
2021/12/18 05:34:05;;;;;;;;;;;;;;;1.40;87.81;98383.00;5093201;28;19960;-75
2021/12/18 05:39:07;;;;;;;;;;;;;;;1.39;88.16;98376.19;5093584;28;19961;-74
2021/12/18 05:41:33;;;;;;;;;;;;;;;1.40;87.63;98373.47;5093323;28;19954;-75
2021/12/18 05:43:59;;;;;;;;;;;;;;;1.45;87.97;98374.91;5093399;28;19974;-75
2021/12/18 05:46:28;;;;;;;;;;;;;;;1.51;87.89;98382.19;5093155;28;19962;-76
2021/12/18 05:48:53;;;;;;;;;;;;;;;1.51;87.56;98374.44;5092282;28;19964;-74
2021/12/18 05:51:20;;;;;;;;;;;;;;;1.53;87.46;98381.16;5093089;28;19956;-75
2021/12/18 05:53:46;;;;;;;;;;;;;;;1.56;87.70;98377.53;5093255;28;20328;-74
2021/12/18 05:56:12;;;;;;;;;;;;;;;1.60;87.78;98373.78;5093097;28;19968;-75
2021/12/18 05:58:38;;;;;;;;;;;;;;;1.63;87.43;98376.94;5094559;28;19986;-75
2021/12/18 06:01:04;;;;;;;;;;;;;;;1.65;87.48;98381.19;5097107;28;19962;-75
2021/12/18 06:03:30;;;;;;;;;;;;;;;1.61;87.17;98378.81;5078529;28;19956;-75
2021/12/18 06:05:56;;;;;;;;;;;;;;;1.59;87.64;98388.44;5096971;28;20028;-74
2021/12/18 06:08:22;;;;;;;;;;;;;;;1.58;87.60;98386.81;5096686;28;19956;-75
2021/12/18 06:10:48;;;;;;;;;;;;;;;1.61;87.72;98391.75;5096687;28;19958;-74
2021/12/18 06:13:14;;;;;;;;;;;;;;;1.62;87.48;98392.59;5062021;28;20058;-74
2021/12/18 06:15:40;;;;;;;;;;;;;;;1.65;87.71;98392.34;5096596;28;19987;-75
2021/12/18 06:18:06;;;;;;;;;;;;;;;1.68;87.18;98386.13;5096707;28;19954;-75
2021/12/18 06:20:31;;;;;;;;;;;;;;;1.69;87.31;98390.38;5096596;28;20502;-75
2021/12/18 06:22:58;;;;;;;;;;;;;;;1.69;87.20;98387.78;5096501;28;20458;-74
2021/12/18 06:25:24;;;;;;;;;;;;;;;1.66;87.09;98394.03;5096629;28;19965;-74
2021/12/18 06:27:50;;;;;;;;;;;;;;;1.64;87.20;98401.06;5096482;28;20036;-75
2021/12/18 06:30:18;;;;;;;;;;;;;;;1.61;87.24;98407.28;5096330;28;20364;-75
2021/12/18 06:32:44;;;;;;;;;;;;;;;1.59;87.26;98405.75;5096449;28;20353;-74
2021/12/18 06:35:10;;;;;;;;;;;;;;;1.55;87.45;98397.38;5096627;28;20046;-74
2021/12/18 06:37:36;;;;;;;;;;;;;;;1.53;87.32;98403.59;5096387;28;19962;-74
2021/12/18 06:40:03;;;;;;;;;;;;;;;1.47;87.26;98402.31;5095986;28;20476;-75
2021/12/18 06:42:32;;;;;;;;;;;;;;;1.42;87.37;98407.78;5096073;28;19961;-75
2021/12/18 06:44:58;;;;;;;;;;;;;;;1.38;87.33;98411.53;5096156;28;19954;-74
2021/12/18 06:47:24;;;;;;;;;;;;;;;1.35;87.02;98410.94;5095939;28;19994;-74
2021/12/18 06:49:50;;;;;;;;;;;;;;;1.33;87.36;98415.41;5096730;28;20326;-74
2021/12/18 06:52:16;;;;;;;;;;;;;;;1.27;86.72;98421.03;5095836;28;20047;-74
2021/12/18 06:54:42;;;;;;;;;;;;;;;1.17;87.34;98419.06;5095852;28;19986;-75
2021/12/18 06:57:08;;;;;;;;;;;;;;;1.05;87.11;98421.72;5095815;28;19954;-75
2021/12/18 06:59:34;;;;;;;;;;;;;;;0.88;87.64;98428.88;5061009;28;20426;-75
2021/12/18 07:01:59;;;;;;;;;;;;;;;0.74;88.58;98416.97;5095928;28;19960;-74
2021/12/18 07:04:25;;;;;;;;;;;;;;;0.72;88.93;98425.75;5095550;28;19957;-75
2021/12/18 07:06:52;;;;;;;;;;;;;;;0.71;89.02;98418.91;5095809;28;19990;-75
2021/12/18 07:09:19;;;;;;;;;;;;;;;0.68;88.58;98421.72;5095674;28;19960;-74
2021/12/18 07:11:45;;;;;;;;;;;;;;;0.64;89.29;98423.69;5077547;28;19959;-75
2021/12/18 07:14:12;;;;;;;;;;;;;;;0.66;88.67;98421.00;5094485;28;20323;-74
2021/12/18 07:16:38;;;;;;;;;;;;;;;0.64;89.71;98413.38;5095746;28;19955;-74
2021/12/18 07:19:04;;;;;;;;;;;;;;;0.69;89.32;98413.84;5095173;28;19971;-75
2021/12/18 07:21:30;;;;;;;;;;;;;;;0.77;90.07;98414.16;5095657;28;19957;-74
2021/12/18 07:23:56;;;;;;;;;;;;;;;0.86;90.14;98415.28;5095642;28;19981;-74
2021/12/18 07:26:22;;;;;;;;;;;;;;;0.86;89.11;98415.28;5077468;28;19997;-74
2021/12/18 07:28:48;;;;;;;;;;;;;;;0.85;89.23;98429.13;5095127;28;20350;-74
2021/12/18 07:31:14;;;;;;;;;;;;;;;0.86;89.25;98419.59;5094896;28;20402;-74
2021/12/18 07:33:42;;;;;;;;;;;;;;;0.89;89.02;98427.97;5093982;28;20046;-75
2021/12/18 07:36:08;;;;;;;;;;;;;;;0.93;89.11;98431.19;5095214;28;19961;-74
2021/12/18 07:38:35;;;;;;;;;;;;;;;0.96;88.96;98433.53;5095013;28;20044;-74
2021/12/18 07:41:01;;;;;;;;;;;;;;;1.01;88.68;98434.88;5095084;28;19955;-75
2021/12/18 07:43:27;;;;;;;;;;;;;;;0.99;88.52;98436.72;5094761;28;19956;-75
2021/12/18 07:45:52;;;;;;;;;;;;;;;0.99;88.94;98438.50;5094877;28;20371;-74
2021/12/18 07:48:18;;;;;;;;;;;;;;;1.01;88.66;98446.97;5095052;28;19965;-74
2021/12/18 07:50:45;;;;;;;;;;;;;;;0.99;88.58;98441.91;5094959;28;19958;-75
2021/12/18 07:53:11;;;;;;;;;;;;;;;1.04;88.71;98443.34;5093902;28;19958;-75
2021/12/18 07:55:38;;;;;;;;;;;;;;;1.06;88.70;98437.13;5095013;28;20324;-75
2021/12/18 07:58:04;;;;;;;;;;;;;;;1.05;88.41;98443.22;5094743;28;19954;-75
2021/12/18 08:00:30;;;;;;;;;;;;;;;0.98;88.10;98453.16;5094591;28;20434;-75
2021/12/18 08:02:56;;;;;;;;;;;;;;;0.79;88.41;98450.22;5094474;28;19958;-75
2021/12/18 08:05:22;;;;;;;;;;;;;;;0.74;89.36;98450.53;5094412;28;19952;-74
2021/12/18 08:07:47;;;;;;;;;;;;;;;0.77;89.16;98441.75;5094676;28;20002;-75
2021/12/18 08:10:13;;;;;;;;;;;;;;;0.82;89.70;98450.00;5094313;28;20069;-75
2021/12/18 08:12:39;;;;;;;;;;;;;;;0.86;89.41;98454.03;5094423;28;19966;-74
2021/12/18 08:15:06;;;;;;;;;;;;;;;0.90;89.35;98446.88;5094282;28;20045;-74
2021/12/18 08:17:32;;;;;;;;;;;;;;;0.93;89.54;98455.25;5094335;28;20411;-74
2021/12/18 08:19:58;;;;;;;;;;;;;;;0.98;89.61;98453.16;5093493;28;20010;-75
2021/12/18 08:22:24;;;;;;;;;;;;;;;1.01;89.27;98458.13;5094246;28;20366;-74
2021/12/18 08:24:50;;;;;;;;;;;;;;;1.04;89.45;98457.06;5076080;28;19956;-75
2021/12/18 08:27:16;;;;;;;;;;;;;;;1.04;89.05;98448.50;5094518;28;20334;-74
2021/12/18 08:29:42;;;;;;;;;;;;;;;1.04;89.07;98443.34;5094192;28;19955;-74
2021/12/18 08:32:08;;;;;;;;;;;;;;;1.02;89.15;98452.00;5094204;28;20364;-74
2021/12/18 08:34:38;;;;;;;;;;;;;;;1.00;88.89;98448.69;5094052;28;20044;-74
2021/12/18 08:37:04;;;;;;;;;;;;;;;1.01;88.79;98442.63;5092784;28;19954;-74
2021/12/18 08:39:30;;;;;;;;;;;;;;;0.98;89.06;98435.06;5093837;28;19953;-75
2021/12/18 08:41:58;;;;;;;;;;;;;;;1.01;89.30;98437.44;5093984;28;19961;-75
2021/12/18 08:44:25;;;;;;;;;;;;;;;1.04;88.78;98438.97;5093973;28;20066;-74
2021/12/18 08:46:50;;;;;;;;;;;;;;;1.04;88.95;98433.81;5094156;28;19949;-74
2021/12/18 08:49:16;;;;;;;;;;;;;;;1.02;89.02;98439.09;5093795;28;20042;-74
2021/12/18 08:51:43;;;;;;;;;;;;;;;1.04;88.98;98440.75;5093851;28;19962;-74
2021/12/18 08:54:09;;;;;;;;;;;;;;;1.03;88.98;98437.34;5093608;28;19985;-74
2021/12/18 08:56:34;;;;;;;;;;;;;;;1.05;89.28;98438.06;5093589;28;19959;-74
2021/12/18 08:59:00;;;;;;;;;;;;;;;1.06;89.18;98444.88;5093676;28;19981;-74
2021/12/18 09:01:27;;;;;;;;;;;;;;;1.05;89.13;98443.22;5093936;28;20310;-75
2021/12/18 09:03:53;;;;;;;;;;;;;;;1.01;88.82;98444.38;5093844;28;20420;-74
2021/12/18 09:06:19;;;;;;;;;;;;;;;0.89;89.06;98443.47;5093556;28;19951;-74
2021/12/18 09:08:46;;;;;;;;;;;;;;;0.87;89.72;98437.59;5093474;28;19961;-74
2021/12/18 09:11:12;;;;;;;;;;;;;;;0.90;89.79;98445.09;5093725;28;19980;-74
2021/12/18 09:13:38;;;;;;;;;;;;;;;0.96;89.45;98446.44;5093645;28;19949;-75
2021/12/18 09:16:04;;;;;;;;;;;;;;;0.99;89.12;98446.25;5093691;28;20009;-75
2021/12/18 09:18:30;;;;;;;;;;;;;;;1.02;89.50;98452.00;5093648;28;19953;-75
2021/12/18 09:20:56;;;;;;;;;;;;;;;1.06;88.97;98437.13;5093598;28;20357;-74
2021/12/18 09:23:22;;;;;;;;;;;;;;;1.02;88.63;98435.69;5075232;28;19960;-75
2021/12/18 09:25:48;;;;;;;;;;;;;;;0.91;88.54;98436.44;5093378;28;19966;-74
2021/12/18 09:28:14;;;;;;;;;;;;;;;0.76;88.85;98430.59;5093579;28;19962;-74
2021/12/18 09:30:43;;;;;;;;;;;;;;;0.69;89.52;98431.94;5092640;28;19954;-74
2021/12/18 09:33:13;;;;;;;;;;;;;;;0.72;90.16;98428.34;5097359;28;19996;-75
2021/12/18 09:35:40;;;;;;;;;;;;;;;0.80;90.38;98429.44;5097437;28;19953;-75
2021/12/18 09:38:06;;;;;;;;;;;;;;;0.90;90.26;98423.63;5083858;28;19953;-75
2021/12/18 09:40:32;;;;;;;;;;;;;;;0.91;89.42;98422.69;5097342;28;19974;-74
2021/12/18 09:42:58;;;;;;;;;;;;;;;0.90;89.73;98414.09;5085464;28;20437;-74
2021/12/18 09:45:24;;;;;;;;;;;;;;;0.96;89.50;98420.59;5097381;28;20311;-75
2021/12/18 09:47:51;;;;;;;;;;;;;;;0.87;88.53;98419.50;5097307;28;20316;-74
2021/12/18 09:50:18;;;;;;;;;;;;;;;0.77;89.26;98429.66;5097194;28;19959;-74
2021/12/18 09:52:44;;;;;;;;;;;;;;;0.72;89.67;98412.84;5095647;28;19955;-74
2021/12/18 09:55:11;;;;;;;;;;;;;;;0.78;89.92;98412.41;5097347;28;20483;-74
2021/12/18 09:57:37;;;;;;;;;;;;;;;0.85;90.18;98411.03;5096909;28;19956;-74
2021/12/18 10:00:14;;;;;;;;;;;;;;;0.92;90.04;98417.41;5097016;28;19965;-75
2021/12/18 10:02:40;;;;;;;;;;;;;;;1.01;89.61;98424.53;5096888;28;19959;-75
2021/12/18 10:05:06;;;;;;;;;;;;;;;1.09;89.63;98415.41;5096896;28;19961;-75
2021/12/18 10:07:32;;;;;;;;;;;;;;;1.16;89.17;98406.28;5096727;28;19973;-75
2021/12/18 10:09:58;;;;;;;;;;;;;;;1.20;89.11;98407.72;5096847;28;19957;-74
2021/12/18 10:12:26;;;;;;;;;;;;;;;1.23;88.92;98412.66;5096863;28;19958;-76
2021/12/18 10:14:52;;;;;;;;;;;;;;;1.25;88.61;98397.84;5095955;28;19964;-75
2021/12/18 10:17:18;;;;;;;;;;;;;;;1.26;88.22;98394.34;5078573;28;20410;-74
2021/12/18 10:19:44;;;;;;;;;;;;;;;1.28;87.82;98399.38;5096558;28;19969;-76
2021/12/18 10:22:10;;;;;;;;;;;;;;;1.28;87.85;98405.41;5064940;28;19953;-75
2021/12/18 10:24:41;;;;;;;;;;;;;;;1.30;87.65;98398.38;5096515;28;19964;-74
2021/12/18 10:27:20;;;;;;;;;;;;;;;1.28;87.38;98394.22;5096497;28;20415;-74
2021/12/18 10:29:47;;;;;;;;;;;;;;;1.28;87.60;98395.06;5096315;28;20345;-74
2021/12/18 10:32:15;;;;;;;;;;;;;;;1.27;86.99;98392.59;5096219;28;19960;-75
2021/12/18 10:34:41;;;;;;;;;;;;;;;1.28;86.97;98389.06;5096181;28;20359;-74
2021/12/18 10:37:23;;;;;;;;;;;;;;;1.32;86.78;98390.47;5096263;28;20335;-74
2021/12/18 10:39:54;;;;;;;;;;;;;;;1.39;87.01;98376.19;5096187;28;20355;-74
2021/12/18 10:42:20;;;;;;;;;;;;;;;1.47;87.23;98380.78;5096252;28;19949;-74
2021/12/18 10:44:55;;;;;;;;;;;;;;;1.54;86.80;98372.47;5095390;28;20398;-74
2021/12/18 10:47:21;;;;;;;;;;;;;;;1.59;86.56;98365.19;5096038;28;19958;-75
2021/12/18 10:49:47;;;;;;;;;;;;;;;1.67;86.38;98369.78;5096130;28;19962;-74
2021/12/18 10:52:13;;;;;;;;;;;;;;;1.74;86.19;98373.59;5095888;28;20012;-75
2021/12/18 10:54:39;;;;;;;;;;;;;;;1.78;85.94;98376.75;5095842;28;20024;-74
2021/12/18 10:57:18;;;;;;;;;;;;;;;1.76;85.83;98370.88;5095807;28;19973;-74
2021/12/18 10:59:48;;;;;;;;;;;;;;;1.75;85.82;98367.47;5095789;28;19967;-75
2021/12/18 11:02:15;;;;;;;;;;;;;;;1.76;86.10;98363.91;5095874;28;19962;-74
2021/12/18 11:04:43;;;;;;;;;;;;;;;1.76;85.99;98365.69;5096048;28;19957;-75
2021/12/18 11:07:25;;;;;;;;;;;;;;;1.78;86.42;98363.81;5079348;28;19978;-75
2021/12/18 11:10:12;;;;;;;;;;;;;;;1.79;85.81;98355.94;5077721;28;19951;-75
2021/12/18 11:15:25;;;;;;;;;;;;;;;1.72;85.70;98343.56;5096331;28;19956;-75
2021/12/18 11:17:51;;;;;;;;;;;;;;;1.71;85.64;98350.53;5095343;28;19960;-75
2021/12/18 11:20:17;;;;;;;;;;;;;;;1.70;85.49;98345.47;5095560;28;20013;-75
2021/12/18 11:22:43;;;;;;;;;;;;;;;1.68;84.86;98349.91;5095467;28;19960;-75
2021/12/18 11:25:12;;;;;;;;;;;;;;;1.65;84.38;98337.22;5095925;28;19967;-74
2021/12/18 11:27:38;;;;;;;;;;;;;;;1.68;84.36;98337.00;5095486;28;19951;-74
2021/12/18 11:30:07;;;;;;;;;;;;;;;1.73;84.57;98327.94;5095471;28;19961;-74
2021/12/18 11:32:35;;;;;;;;;;;;;;;1.78;84.38;98325.81;5095025;28;19965;-74
2021/12/18 11:35:04;;;;;;;;;;;;;;;1.85;84.81;98326.22;5077154;28;19951;-74
2021/12/18 11:37:40;;;;;;;;;;;;;;;1.87;84.10;98326.06;5094979;28;19965;-75
2021/12/18 11:40:09;;;;;;;;;;;;;;;1.89;84.24;98324.19;5094969;28;20353;-74
2021/12/18 11:42:35;;;;;;;;;;;;;;;1.92;83.97;98321.41;5095004;28;19954;-75
2021/12/18 11:45:03;;;;;;;;;;;;;;;1.94;83.80;98316.91;5094781;28;19953;-74
2021/12/18 11:47:31;;;;;;;;;;;;;;;1.83;83.42;98318.56;5094120;28;19960;-74
2021/12/18 11:49:59;;;;;;;;;;;;;;;1.73;84.12;98314.19;5094653;28;19949;-74
2021/12/18 11:52:26;;;;;;;;;;;;;;;1.68;84.61;98314.56;5094759;28;19952;-74
2021/12/18 11:54:54;;;;;;;;;;;;;;;1.67;84.43;98310.31;5075291;28;19978;-74
2021/12/18 11:57:48;;;;;;;;;;;;;;;1.72;84.74;98312.53;5094879;28;19959;-75
2021/12/18 12:00:17;;;;;;;;;;;;;;;1.77;84.14;98316.44;5075715;28;20341;-74
2021/12/18 12:02:44;;;;;;;;;;;;;;;1.73;83.72;98309.03;5094980;28;20423;-74
2021/12/18 12:05:10;;;;;;;;;;;;;;;1.66;84.01;98311.25;5093950;28;19962;-75
2021/12/18 12:07:37;;;;;;;;;;;;;;;1.63;84.16;98306.31;5094091;28;20031;-75
2021/12/18 12:10:47;;;;;;;;;;;;;;;1.62;84.24;98307.25;5094385;28;19960;-74
2021/12/18 12:13:11;;;;;;;;;;;;;;;1.70;84.48;98298.91;5078833;28;19950;-74
2021/12/18 12:15:49;;;;;;;;;;;;;;;1.69;84.10;98299.84;5094475;28;20053;-74
2021/12/18 12:18:15;;;;;;;;;;;;;;;1.66;84.02;98293.16;5094563;28;19951;-74
2021/12/18 12:20:43;;;;;;;;;;;;;;;1.65;84.45;98277.75;5094133;28;20308;-75
2021/12/18 12:23:10;;;;;;;;;;;;;;;1.62;84.32;98279.63;5094313;28;19949;-74
2021/12/18 12:25:44;;;;;;;;;;;;;;;1.72;84.64;98279.75;5094169;28;19965;-74
2021/12/18 12:28:10;;;;;;;;;;;;;;;1.83;84.51;98276.34;5094156;28;19961;-74
2021/12/18 12:30:43;;;;;;;;;;;;;;;1.87;83.98;98277.75;5093172;28;20109;-75
2021/12/18 12:33:20;;;;;;;;;;;;;;;1.83;83.38;98261.66;5094115;28;19950;-75
2021/12/18 12:36:09;;;;;;;;;;;;;;;1.76;83.49;98264.81;5094406;28;19954;-74
2021/12/18 12:38:35;;;;;;;;;;;;;;;1.71;84.30;98254.81;5083458;28;19954;-75
2021/12/18 12:41:19;;;;;;;;;;;;;;;1.74;83.82;98256.34;5094059;28;19965;-75
2021/12/18 12:43:45;;;;;;;;;;;;;;;1.76;84.12;98244.94;5093795;28;20406;-74
2021/12/18 12:46:15;;;;;;;;;;;;;;;1.82;84.15;98249.63;5075972;28;19953;-75
2021/12/18 12:48:57;;;;;;;;;;;;;;;1.93;84.32;98248.00;5093906;28;19955;-75
2021/12/18 12:51:23;;;;;;;;;;;;;;;2.05;83.23;98244.44;5093376;28;19958;-75
2021/12/18 12:53:49;;;;;;;;;;;;;;;2.08;83.42;98244.22;5072424;28;20388;-75
2021/12/18 12:56:16;;;;;;;;;;;;;;;2.11;82.99;98241.38;5073676;28;19949;-74
2021/12/18 12:58:42;;;;;;;;;;;;;;;2.07;82.55;98242.56;5073658;28;19953;-75
2021/12/18 13:01:08;;;;;;;;;;;;;;;2.01;82.47;98240.47;5073438;28;20064;-74
2021/12/18 13:03:43;;;;;;;;;;;;;;;2.05;83.02;98236.69;5073841;28;19975;-75
2021/12/18 13:06:13;;;;;;;;;;;;;;;2.14;83.47;98240.31;5073133;28;19960;-74
2021/12/18 13:08:40;;;;;;;;;;;;;;;2.18;83.51;98232.22;5073346;28;19957;-75
2021/12/18 13:11:08;;;;;;;;;;;;;;;2.22;83.26;98231.00;5073811;28;19951;-75
2021/12/18 13:13:35;;;;;;;;;;;;;;;2.27;83.07;98229.81;5073579;28;20411;-75
2021/12/18 13:16:06;;;;;;;;;;;;;;;2.34;83.13;98220.63;5073591;28;20401;-75
2021/12/18 13:18:40;;;;;;;;;;;;;;;2.42;82.81;98218.25;5073212;28;19966;-75
2021/12/18 13:21:09;;;;;;;;;;;;;;;2.46;82.66;98208.47;5059186;28;19973;-75
2021/12/18 13:23:38;;;;;;;;;;;;;;;2.50;82.13;98212.44;5073638;28;19964;-75
2021/12/18 13:26:05;;;;;;;;;;;;;;;2.51;82.58;98219.28;5073435;28;19960;-74
2021/12/18 13:28:31;;;;;;;;;;;;;;;2.52;82.63;98205.38;5073290;28;19968;-74
2021/12/18 13:30:57;;;;;;;;;;;;;;;2.56;82.54;98214.56;5073339;28;20041;-74
2021/12/18 13:33:25;;;;;;;;;;;;;;;2.59;82.32;98209.94;5073245;28;19967;-75
2021/12/18 13:35:56;;;;;;;;;;;;;;;2.62;82.35;98207.13;5073020;28;19954;-74
2021/12/18 13:38:23;;;;;;;;;;;;;;;2.66;81.67;98206.88;5073268;28;20437;-74
2021/12/18 13:40:50;;;;;;;;;;;;;;;2.67;81.46;98198.97;5073103;28;19979;-74
2021/12/18 13:43:20;;;;;;;;;;;;;;;2.68;81.62;98194.63;5073131;28;20343;-74
2021/12/18 13:45:52;;;;;;;;;;;;;;;2.68;82.01;98192.03;5073078;28;19966;-75
2021/12/18 13:48:19;;;;;;;;;;;;;;;2.63;81.35;98190.63;5073033;28;20326;-75
2021/12/18 13:50:52;;;;;;;;;;;;;;;2.60;82.50;98203.84;5073020;28;19965;-76
2021/12/18 13:53:18;;;;;;;;;;;;;;;2.54;81.39;98196.56;5072936;28;19970;-76